Terminal Aerodrome Forecast
Issued by NWS

Home | Current Version | Previous Version | Text Only | Print | Product List | Glossary On
Versions: 1 2 3 4 5 6 7 8 9 10 11 12 13 14 15 16 17
822
FTUS44 KJAN 202344
TAFHKS
TAF
KHKS 202344Z 2100/2124 19006KT P6SM SCT250
     FM210700 17006KT P6SM VCTS FEW020 BKN050CB OVC130
     FM210830 20015G35KT 1SM +TSRA BR BKN025CB OVC090
     FM211000 13005KT 5SM -TSRA BR BKN025 BKN050CB OVC090
     FM211300 15006KT 2SM BR BKN008 BKN250
     FM211600 18007KT 6SM BR BKN008 BKN250=

USA.gov is the U.S. government's official web portal to all federal, state and local government web resources and services.